createdAt,value
2019-05-15T00:01:12.343Z,28.62
2019-05-15T00:03:42.924Z,27.02
2019-05-15T00:06:13.620Z,28.05
2019-05-15T00:08:43.709Z,27.05
2019-05-15T00:11:14.301Z,27.93
2019-05-15T00:13:45.063Z,34.27
2019-05-15T00:16:17.980Z,41.58
2019-05-15T00:18:48.954Z,31.12
2019-05-15T00:21:52.488Z,29.35
2019-05-15T00:24:23.305Z,30.72
2019-05-15T00:26:54.523Z,30.65
2019-05-15T00:29:25.012Z,29.75
2019-05-15T00:31:58.769Z,30.72
2019-05-15T00:34:28.749Z,29.75
2019-05-15T00:36:59.093Z,33.88
2019-05-15T00:39:30.500Z,27.10
2019-05-15T00:42:01.846Z,30.12
2019-05-15T00:44:33.245Z,34.40
2019-05-15T00:47:03.612Z,31.87
2019-05-15T00:49:34.906Z,34.88
2019-05-15T00:52:11.761Z,30.90
2019-05-15T00:54:38.916Z,42.10
2019-05-15T00:57:09.471Z,33.25
2019-05-15T00:59:39.704Z,34.13
2019-05-15T01:02:12.159Z,35.13
2019-05-15T01:04:42.978Z,31.90
2019-05-15T01:07:15.240Z,41.18
2019-05-15T01:09:45.915Z,31.73
2019-05-15T01:12:18.494Z,33.78
2019-05-15T01:14:49.377Z,32.45
2019-05-15T01:17:22.112Z,32.93
2019-05-15T01:19:54.014Z,34.10
2019-05-15T01:22:24.265Z,31.70
2019-05-15T01:24:54.815Z,31.07
2019-05-15T01:27:26.234Z,34.15
2019-05-15T01:29:58.716Z,31.52
2019-05-15T01:32:28.822Z,36.08
2019-05-15T01:35:02.189Z,27.70
2019-05-15T01:37:34.892Z,31.15
2019-05-15T01:40:08.837Z,39.35
2019-05-15T01:42:43.236Z,32.45
2019-05-15T01:45:16.355Z,31.35
2019-05-15T01:47:48.034Z,32.58
2019-05-15T01:50:18.597Z,33.80
2019-05-15T01:52:49.332Z,35.85
2019-05-15T01:55:20.733Z,41.08
2019-05-15T01:57:51.795Z,36.93
2019-05-15T02:00:23.426Z,40.50
2019-05-15T02:02:53.646Z,32.50
2019-05-15T02:05:23.847Z,34.33
2019-05-15T02:07:58.400Z,33.67
2019-05-15T02:10:29.198Z,31.75
2019-05-15T02:12:59.711Z,36.53
2019-05-15T02:15:29.890Z,31.35
2019-05-15T02:18:01.652Z,32.93
2019-05-15T02:20:33.042Z,30.55
2019-05-15T02:23:03.790Z,30.62
2019-05-15T02:25:38.794Z,36.30
2019-05-15T02:28:09.842Z,33.13
2019-05-15T02:30:41.142Z,31.95
2019-05-15T02:33:11.787Z,32.50
2019-05-15T02:35:44.215Z,31.25
2019-05-15T02:38:15.793Z,33.35
2019-05-15T02:40:49.167Z,29.35
2019-05-15T02:43:19.121Z,36.20
2019-05-15T02:45:51.270Z,34.00
2019-05-15T02:48:22.436Z,31.42
2019-05-15T02:50:54.786Z,36.28
2019-05-15T02:53:30.038Z,30.43
2019-05-15T02:56:01.104Z,27.77
2019-05-15T02:58:31.168Z,33.02
2019-05-15T03:01:02.399Z,28.67
2019-05-15T03:03:33.452Z,30.70
2019-05-15T03:06:05.456Z,30.32
2019-05-15T03:08:35.674Z,34.27
2019-05-15T03:11:09.627Z,30.70
2019-05-15T03:13:41.998Z,31.10
2019-05-15T03:16:14.359Z,27.32
2019-05-15T03:18:46.006Z,32.03
2019-05-15T03:21:18.765Z,28.83
2019-05-15T03:23:53.499Z,29.42
2019-05-15T03:26:25.877Z,27.52
2019-05-15T03:28:59.026Z,27.95
2019-05-15T03:31:49.022Z,25.77
2019-05-15T03:34:04.055Z,33.78
2019-05-15T03:36:35.872Z,25.43
2019-05-15T03:39:09.688Z,31.37
2019-05-15T03:41:39.498Z,28.17
2019-05-15T03:44:09.700Z,28.87
2019-05-15T03:46:40.681Z,29.02
2019-05-15T03:49:11.898Z,28.57
2019-05-15T03:51:46.176Z,25.43
2019-05-15T03:54:18.947Z,31.77
2019-05-15T03:56:50.864Z,29.32
2019-05-15T03:59:24.423Z,26.62
2019-05-15T04:02:00.005Z,26.40
2019-05-15T04:04:33.074Z,28.30
2019-05-15T04:07:03.954Z,28.10
2019-05-15T04:09:38.868Z,24.45
2019-05-15T04:12:13.767Z,28.77
2019-05-15T04:14:49.835Z,30.20
2019-05-15T04:17:20.336Z,29.82
2019-05-15T04:19:55.562Z,27.27
2019-05-15T04:22:28.793Z,29.82
2019-05-15T04:24:59.472Z,31.80
2019-05-15T04:27:32.841Z,26.95
2019-05-15T04:30:05.862Z,21.93
2019-05-15T04:32:39.779Z,25.60
2019-05-15T04:35:11.885Z,26.55
2019-05-15T04:37:42.973Z,26.35
2019-05-15T04:40:14.594Z,23.65
2019-05-15T04:42:49.626Z,26.27
2019-05-15T04:45:19.574Z,24.55
2019-05-15T04:47:54.128Z,27.65
2019-05-15T04:50:28.793Z,23.52
2019-05-15T04:53:01.292Z,27.73
2019-05-15T04:55:39.906Z,22.87
2019-05-15T04:58:10.771Z,26.97
2019-05-15T05:00:52.794Z,26.62
2019-05-15T05:03:24.420Z,26.27
2019-05-15T05:05:54.922Z,21.30
2019-05-15T05:08:28.980Z,24.80
2019-05-15T05:11:00.313Z,21.77
2019-05-15T05:13:30.959Z,21.02
2019-05-15T05:16:03.303Z,26.50
2019-05-15T05:18:34.725Z,27.52
2019-05-15T05:21:07.740Z,25.35
2019-05-15T05:23:41.602Z,20.02
2019-05-15T05:26:12.590Z,24.18
2019-05-15T05:28:44.414Z,18.67
2019-05-15T05:31:15.033Z,24.75
2019-05-15T05:33:48.802Z,23.38
2019-05-15T05:36:20.103Z,27.93
2019-05-15T05:38:50.144Z,22.98
2019-05-15T05:41:21.797Z,19.52
2019-05-15T05:43:55.281Z,23.27
2019-05-15T05:46:29.659Z,23.00
2019-05-15T05:49:08.074Z,26.40
2019-05-15T05:51:39.715Z,22.80
2019-05-15T05:54:12.171Z,22.82
2019-05-15T05:56:44.916Z,22.52
2019-05-15T05:59:18.506Z,24.27
2019-05-15T06:01:52.278Z,25.72
2019-05-15T06:04:23.725Z,23.18
2019-05-15T06:07:07.137Z,20.17
2019-05-15T06:09:29.108Z,21.97
2019-05-15T06:11:59.841Z,22.30
2019-05-15T06:14:33.393Z,17.98
2019-05-15T06:17:05.283Z,25.02
2019-05-15T06:19:38.617Z,25.08
2019-05-15T06:22:10.222Z,22.45
2019-05-15T06:24:42.460Z,20.90
2019-05-15T06:27:12.866Z,21.37
2019-05-15T06:29:45.136Z,20.08
2019-05-15T06:32:19.418Z,20.80
2019-05-15T06:34:52.980Z,25.40
2019-05-15T06:37:28.539Z,23.32
2019-05-15T06:40:02.518Z,20.60
2019-05-15T06:42:35.460Z,20.00
2019-05-15T06:45:08.288Z,19.57
2019-05-15T06:47:42.959Z,15.55
2019-05-15T06:50:17.975Z,19.62
2019-05-15T06:52:50.314Z,19.15
2019-05-15T06:55:21.573Z,20.17
2019-05-15T06:57:53.778Z,16.32
2019-05-15T07:00:28.221Z,17.07
2019-05-15T07:03:00.834Z,20.32
2019-05-15T07:05:33.554Z,16.10
2019-05-15T07:08:05.465Z,19.62
2019-05-15T07:10:38.926Z,18.10
2019-05-15T07:13:12.824Z,18.62
2019-05-15T07:15:45.941Z,16.57
2019-05-15T07:18:19.860Z,18.40
2019-05-15T07:20:51.048Z,22.20
2019-05-15T07:23:27.106Z,22.95
2019-05-15T07:25:58.753Z,18.50
2019-05-15T07:28:34.859Z,15.85
2019-05-15T07:31:11.257Z,16.57
2019-05-15T07:33:43.633Z,16.25
2019-05-15T07:36:14.607Z,17.57
2019-05-15T07:38:48.520Z,20.37
2019-05-15T07:41:24.230Z,15.98
2019-05-15T07:43:58.410Z,16.55
2019-05-15T07:46:31.533Z,18.30
2019-05-15T07:49:03.241Z,18.52
2019-05-15T07:51:34.767Z,14.35
2019-05-15T07:54:09.251Z,18.07
2019-05-15T07:56:41.484Z,17.35
2019-05-15T07:59:15.135Z,17.75
2019-05-15T08:01:48.842Z,14.43
2019-05-15T08:04:28.787Z,14.33
2019-05-15T08:06:58.931Z,15.68
2019-05-15T08:09:30.445Z,17.00
2019-05-15T08:12:03.432Z,18.82
2019-05-15T08:14:38.680Z,14.07
2019-05-15T08:17:09.060Z,17.80
2019-05-15T08:19:40.032Z,14.45
2019-05-15T08:22:11.006Z,16.82
2019-05-15T08:24:42.795Z,17.67
2019-05-15T08:27:14.512Z,15.38
2019-05-15T08:29:48.550Z,19.98
2019-05-15T08:32:19.036Z,15.28
2019-05-15T08:34:51.809Z,17.65
2019-05-15T08:37:23.966Z,22.22
2019-05-15T08:39:55.612Z,16.40
2019-05-15T08:42:28.096Z,14.95
2019-05-15T08:44:58.999Z,21.02
2019-05-15T08:47:30.879Z,15.58
2019-05-15T08:50:01.632Z,20.85
2019-05-15T08:52:33.332Z,16.00
2019-05-15T08:55:20.184Z,16.62
2019-05-15T08:57:55.928Z,22.48
2019-05-15T09:00:25.711Z,17.92
2019-05-15T09:02:58.318Z,20.95
2019-05-15T09:05:30.956Z,20.60
2019-05-15T09:08:02.944Z,15.03
2019-05-15T09:10:33.972Z,17.37
2019-05-15T09:13:05.320Z,18.40
2019-05-15T09:15:39.521Z,16.15
2019-05-15T09:18:16.009Z,23.50
2019-05-15T09:20:44.119Z,20.65
2019-05-15T09:23:14.510Z,24.82
2019-05-15T09:25:45.415Z,19.92
2019-05-15T09:28:18.931Z,20.52
2019-05-15T09:30:51.647Z,17.07
2019-05-15T09:33:25.586Z,20.92
2019-05-15T09:36:00.266Z,21.87
2019-05-15T09:38:32.489Z,21.00
2019-05-15T09:41:08.695Z,22.22
2019-05-15T09:43:42.311Z,21.65
2019-05-15T09:46:13.844Z,20.65
2019-05-15T09:48:51.253Z,20.70
2019-05-15T09:51:22.273Z,19.95
2019-05-15T09:53:54.379Z,21.37
2019-05-15T09:56:25.253Z,18.62
2019-05-15T09:58:58.180Z,18.27
2019-05-15T10:01:30.813Z,20.10
2019-05-15T10:04:08.144Z,23.55
2019-05-15T10:06:40.099Z,19.55
2019-05-15T10:09:14.250Z,20.12
2019-05-15T10:11:45.955Z,19.32
2019-05-15T10:14:19.469Z,20.15
2019-05-15T10:16:55.080Z,29.35
2019-05-15T10:19:29.784Z,25.17
2019-05-15T10:22:03.163Z,25.52
2019-05-15T10:24:34.843Z,22.30
2019-05-15T10:27:08.759Z,24.98
2019-05-15T10:29:40.737Z,31.52
2019-05-15T10:32:12.006Z,25.95
2019-05-15T10:34:45.702Z,22.10
2019-05-15T10:37:21.357Z,22.55
2019-05-15T10:39:54.495Z,22.05
2019-05-15T10:42:25.506Z,21.12
2019-05-15T10:44:58.929Z,16.05
2019-05-15T10:47:30.852Z,19.92
2019-05-15T10:50:02.524Z,16.50
2019-05-15T10:52:33.324Z,12.40
2019-05-15T10:55:08.912Z,11.75
2019-05-15T10:57:44.179Z,10.25
2019-05-15T11:00:15.072Z,12.05
2019-05-15T11:02:50.351Z,11.10
2019-05-15T11:05:37.379Z,8.43
2019-05-15T11:07:58.935Z,11.15
2019-05-15T11:10:34.939Z,9.35
2019-05-15T11:13:08.812Z,9.15
2019-05-15T11:15:42.657Z,9.50
2019-05-15T11:18:15.293Z,12.28
2019-05-15T11:20:48.758Z,7.95
2019-05-15T11:23:20.337Z,9.70
2019-05-15T11:25:52.595Z,8.35
2019-05-15T11:28:31.808Z,9.40
2019-05-15T11:31:03.769Z,10.30
2019-05-15T11:33:38.496Z,9.58
2019-05-15T11:36:09.714Z,11.08
2019-05-15T11:38:40.770Z,10.55
2019-05-15T11:41:14.398Z,9.25
2019-05-15T11:43:49.285Z,11.83
2019-05-15T11:46:20.413Z,10.75
2019-05-15T11:48:54.097Z,12.85
2019-05-15T11:51:29.229Z,11.40
2019-05-15T11:54:01.013Z,8.73
2019-05-15T11:56:32.678Z,17.27
2019-05-15T11:59:03.593Z,16.23
2019-05-15T12:01:34.835Z,10.53
2019-05-15T12:04:09.142Z,11.85
2019-05-15T12:06:41.963Z,14.50
2019-05-15T12:09:14.165Z,9.93
2019-05-15T12:11:46.107Z,17.00
2019-05-15T12:14:19.654Z,12.78
2019-05-15T12:17:05.136Z,11.80
2019-05-15T12:19:28.975Z,13.05
2019-05-15T12:22:01.493Z,14.03
2019-05-15T12:24:36.891Z,10.38
2019-05-15T12:27:15.199Z,11.50
2019-05-15T12:29:41.568Z,14.60
2019-05-15T12:34:49.525Z,11.88
2019-05-15T12:37:21.626Z,14.40
2019-05-15T12:39:25.958Z,14.68
2019-05-15T13:00:32.792Z,10.82
2019-05-15T13:03:03.222Z,12.18
2019-05-15T13:05:35.056Z,11.05
2019-05-15T13:08:08.348Z,9.00
2019-05-15T13:10:40.341Z,11.15
2019-05-15T13:13:12.168Z,10.53
2019-05-15T13:15:48.098Z,9.48
2019-05-15T13:18:18.552Z,10.00
2019-05-15T13:20:50.013Z,9.25
2019-05-15T13:23:21.141Z,9.50
2019-05-15T13:25:52.729Z,12.53
2019-05-15T13:28:24.804Z,10.63
2019-05-15T13:30:59.559Z,11.03
2019-05-15T13:33:33.418Z,11.85
2019-05-15T13:36:10.103Z,10.68
2019-05-15T13:38:48.474Z,12.33
2019-05-15T13:41:29.699Z,9.58
2019-05-15T13:44:02.326Z,11.70
2019-05-15T13:46:38.124Z,11.45
2019-05-15T13:49:10.543Z,9.88
2019-05-15T13:51:43.240Z,10.35
2019-05-15T13:54:14.884Z,9.83
2019-05-15T13:56:48.623Z,7.72
2019-05-15T13:59:22.847Z,11.80
2019-05-15T14:01:53.966Z,7.80
2019-05-15T14:04:25.923Z,10.10
2019-05-15T14:06:58.777Z,12.28
2019-05-15T14:09:34.058Z,10.60
2019-05-15T14:12:11.594Z,17.17
2019-05-15T14:14:42.433Z,7.78
2019-05-15T14:17:13.240Z,9.13
2019-05-15T14:19:44.389Z,9.38
2019-05-15T14:22:16.893Z,10.08
2019-05-15T14:24:50.612Z,8.48
2019-05-15T14:27:21.489Z,8.40
2019-05-15T14:29:58.060Z,12.23
2019-05-15T14:32:37.705Z,8.20
2019-05-15T14:35:03.950Z,8.13
2019-05-15T14:37:36.232Z,9.68
2019-05-15T14:40:12.400Z,8.38
2019-05-15T14:42:48.345Z,6.72
2019-05-15T14:45:21.559Z,8.45
2019-05-15T14:47:54.438Z,8.10
2019-05-15T14:50:25.616Z,8.68
2019-05-15T14:52:58.590Z,7.92
2019-05-15T14:55:34.854Z,9.63
2019-05-15T14:58:08.375Z,12.43
2019-05-15T15:00:41.860Z,8.75
2019-05-15T15:03:15.499Z,10.80
2019-05-15T15:05:51.289Z,12.05
2019-05-15T15:08:25.309Z,11.80
2019-05-15T15:10:59.442Z,9.73
2019-05-15T15:13:30.326Z,10.28
2019-05-15T15:16:05.361Z,12.53
2019-05-15T15:18:40.690Z,11.20
2019-05-15T15:21:12.279Z,11.33
2019-05-15T15:23:42.742Z,11.08
2019-05-15T15:26:15.825Z,13.00
2019-05-15T15:28:48.938Z,12.03
2019-05-15T15:31:21.457Z,10.82
2019-05-15T15:33:57.959Z,12.35
2019-05-15T15:36:30.782Z,11.93
2019-05-15T15:39:08.108Z,13.35
2019-05-15T15:41:44.738Z,14.98
2019-05-15T15:44:20.974Z,13.72
2019-05-15T15:46:58.902Z,14.43
2019-05-15T15:49:33.760Z,13.50
2019-05-15T15:52:10.291Z,16.73
2019-05-15T15:54:45.880Z,16.93
2019-05-15T15:57:28.372Z,17.35
2019-05-15T16:00:04.525Z,17.90
2019-05-15T16:02:40.960Z,21.65
2019-05-15T16:05:15.537Z,21.35
2019-05-15T16:07:49.917Z,23.25
2019-05-15T16:10:23.631Z,17.35
2019-05-15T16:13:05.429Z,18.62
2019-05-15T16:15:41.500Z,22.55
2019-05-15T16:18:18.139Z,18.20
2019-05-15T16:20:57.952Z,17.92
2019-05-15T16:23:38.528Z,20.32
2019-05-15T16:26:19.282Z,19.73
2019-05-15T16:29:01.592Z,27.67
2019-05-15T16:31:40.989Z,23.38
2019-05-15T16:34:18.793Z,24.47
2019-05-15T16:36:58.699Z,23.67
2019-05-15T16:39:44.086Z,25.20
2019-05-15T16:46:29.185Z,34.10
2019-05-15T16:49:13.472Z,29.57
2019-05-15T16:51:49.277Z,23.30
2019-05-15T16:54:38.291Z,29.48
2019-05-15T16:57:18.435Z,29.18
2019-05-15T16:59:58.636Z,27.73
2019-05-15T17:02:40.667Z,28.77
2019-05-15T17:05:21.258Z,28.17
2019-05-15T17:07:52.098Z,30.25
2019-05-15T17:10:51.995Z,31.65
2019-05-15T17:13:24.336Z,33.35
2019-05-15T17:15:59.951Z,39.20
2019-05-15T17:18:33.191Z,33.33
2019-05-15T17:21:09.540Z,33.55
2019-05-15T17:23:39.941Z,31.85
2019-05-15T17:26:14.868Z,40.83
2019-05-15T17:28:48.052Z,42.25
2019-05-15T17:31:23.825Z,37.67
2019-05-15T17:33:58.233Z,39.90
2019-05-15T17:36:31.953Z,35.65
2019-05-15T17:39:03.689Z,34.95
2019-05-15T17:41:35.651Z,36.70
2019-05-15T17:44:10.091Z,37.45
2019-05-15T17:46:48.957Z,35.83
2019-05-15T17:49:24.303Z,41.15
2019-05-15T17:51:58.084Z,36.90
2019-05-15T17:54:49.084Z,37.48
2019-05-15T17:57:22.506Z,41.98
2019-05-15T17:59:53.661Z,39.85
2019-05-15T18:02:28.538Z,39.42
2019-05-15T18:04:59.842Z,36.08
2019-05-15T18:07:31.893Z,45.40
2019-05-15T18:10:08.468Z,45.40
2019-05-15T18:13:19.380Z,35.55
2019-05-15T18:15:53.184Z,39.48
2019-05-15T18:18:35.537Z,42.60
2019-05-15T18:21:08.825Z,37.45
2019-05-15T18:23:40.685Z,44.27
2019-05-15T18:26:15.491Z,41.90
2019-05-15T18:28:48.895Z,38.55
2019-05-15T18:31:20.095Z,35.75
2019-05-15T18:33:53.689Z,36.98
2019-05-15T18:36:25.663Z,42.03
2019-05-15T18:39:25.355Z,39.63
2019-05-15T18:41:58.366Z,40.33
2019-05-15T18:44:33.298Z,42.38
2019-05-15T18:47:10.877Z,37.17
2019-05-15T18:49:41.829Z,38.78
2019-05-15T18:52:18.197Z,35.10
2019-05-15T18:54:49.873Z,49.08
2019-05-15T18:57:24.240Z,47.70
2019-05-15T18:59:58.030Z,42.58
2019-05-15T19:02:29.261Z,39.10
2019-05-15T19:05:02.227Z,40.48
2019-05-15T19:07:32.914Z,38.67
2019-05-15T19:10:03.990Z,37.93
2019-05-15T19:12:48.433Z,40.63
2019-05-15T19:15:21.712Z,35.80
2019-05-15T19:17:58.575Z,38.75
2019-05-15T19:20:32.470Z,36.25
2019-05-15T19:23:04.206Z,36.45
2019-05-15T19:25:35.167Z,42.20
2019-05-15T19:28:08.469Z,43.52
2019-05-15T19:30:40.611Z,43.85
2019-05-15T19:54:14.535Z,47.95
2019-05-15T19:56:53.644Z,44.60
2019-05-15T19:59:25.902Z,42.60
2019-05-15T20:02:00.206Z,38.95
2019-05-15T20:04:32.232Z,38.15
2019-05-15T20:07:02.887Z,37.70
2019-05-15T20:09:34.469Z,36.33
2019-05-15T20:12:09.038Z,35.40
